sensor_id;sensor_type;location;lat;lon;timestamp;P1;durP1;ratioP1;P2;durP2;ratioP2
45136;SDS011;30894;51.740;19.498;2023-03-20T00:01:23;42.60;;;15.27;;
45136;SDS011;30894;51.740;19.498;2023-03-20T00:03:56;32.22;;;12.90;;
45136;SDS011;30894;51.740;19.498;2023-03-20T00:06:23;39.88;;;13.80;;
45136;SDS011;30894;51.740;19.498;2023-03-20T00:08:52;33.22;;;11.07;;
45136;SDS011;30894;51.740;19.498;2023-03-20T00:13:58;26.00;;;10.73;;
45136;SDS011;30894;51.740;19.498;2023-03-20T00:16:39;24.20;;;10.10;;
45136;SDS011;30894;51.740;19.498;2023-03-20T00:19:21;32.08;;;12.32;;
45136;SDS011;30894;51.740;19.498;2023-03-20T00:21:54;40.92;;;13.00;;
45136;SDS011;30894;51.740;19.498;2023-03-20T00:24:21;44.20;;;12.82;;
45136;SDS011;30894;51.740;19.498;2023-03-20T00:26:48;30.80;;;11.55;;
45136;SDS011;30894;51.740;19.498;2023-03-20T00:29:24;44.13;;;14.02;;
45136;SDS011;30894;51.740;19.498;2023-03-20T00:31:55;37.97;;;12.07;;
45136;SDS011;30894;51.740;19.498;2023-03-20T00:34:23;35.22;;;12.10;;
45136;SDS011;30894;51.740;19.498;2023-03-20T00:36:53;32.63;;;13.20;;
45136;SDS011;30894;51.740;19.498;2023-03-20T00:39:20;25.50;;;10.65;;
45136;SDS011;30894;51.740;19.498;2023-03-20T00:46:56;32.05;;;13.05;;
45136;SDS011;30894;51.740;19.498;2023-03-20T00:49:26;33.83;;;12.15;;
45136;SDS011;30894;51.740;19.498;2023-03-20T00:51:58;39.55;;;13.25;;
45136;SDS011;30894;51.740;19.498;2023-03-20T00:54:27;37.88;;;13.35;;
45136;SDS011;30894;51.740;19.498;2023-03-20T00:56:54;34.78;;;13.82;;
45136;SDS011;30894;51.740;19.498;2023-03-20T00:59:34;33.42;;;11.93;;
45136;SDS011;30894;51.740;19.498;2023-03-20T01:02:04;34.50;;;11.68;;
45136;SDS011;30894;51.740;19.498;2023-03-20T01:04:36;32.03;;;13.98;;
45136;SDS011;30894;51.740;19.498;2023-03-20T01:07:06;34.28;;;12.15;;
45136;SDS011;30894;51.740;19.498;2023-03-20T01:09:38;36.93;;;13.03;;
45136;SDS011;30894;51.740;19.498;2023-03-20T01:12:05;35.50;;;14.10;;
45136;SDS011;30894;51.740;19.498;2023-03-20T01:14:32;40.60;;;16.13;;
45136;SDS011;30894;51.740;19.498;2023-03-20T01:16:59;34.08;;;13.73;;
45136;SDS011;30894;51.740;19.498;2023-03-20T01:19:25;47.35;;;14.80;;
45136;SDS011;30894;51.740;19.498;2023-03-20T01:21:51;33.22;;;14.48;;
45136;SDS011;30894;51.740;19.498;2023-03-20T01:24:17;43.33;;;15.50;;
45136;SDS011;30894;51.740;19.498;2023-03-20T01:26:43;41.17;;;14.55;;
45136;SDS011;30894;51.740;19.498;2023-03-20T01:31:46;39.80;;;15.60;;
45136;SDS011;30894;51.740;19.498;2023-03-20T01:34:13;49.55;;;16.52;;
45136;SDS011;30894;51.740;19.498;2023-03-20T01:36:40;52.15;;;16.60;;
45136;SDS011;30894;51.740;19.498;2023-03-20T01:39:13;62.27;;;19.00;;
45136;SDS011;30894;51.740;19.498;2023-03-20T01:41:39;47.55;;;17.02;;
45136;SDS011;30894;51.740;19.498;2023-03-20T01:44:15;51.90;;;16.48;;
45136;SDS011;30894;51.740;19.498;2023-03-20T01:46:48;40.72;;;16.92;;
45136;SDS011;30894;51.740;19.498;2023-03-20T01:51:46;38.13;;;16.02;;
45136;SDS011;30894;51.740;19.498;2023-03-20T01:54:23;36.95;;;15.48;;
45136;SDS011;30894;51.740;19.498;2023-03-20T01:57:02;49.80;;;16.27;;
45136;SDS011;30894;51.740;19.498;2023-03-20T01:59:46;48.72;;;17.25;;
45136;SDS011;30894;51.740;19.498;2023-03-20T02:02:23;49.00;;;16.38;;
45136;SDS011;30894;51.740;19.498;2023-03-20T02:04:55;40.20;;;14.98;;
45136;SDS011;30894;51.740;19.498;2023-03-20T02:07:28;49.72;;;15.10;;
45136;SDS011;30894;51.740;19.498;2023-03-20T02:10:03;47.45;;;15.60;;
45136;SDS011;30894;51.740;19.498;2023-03-20T02:12:39;45.58;;;14.88;;
45136;SDS011;30894;51.740;19.498;2023-03-20T02:15:07;47.10;;;15.48;;
45136;SDS011;30894;51.740;19.498;2023-03-20T02:17:34;42.72;;;17.10;;
45136;SDS011;30894;51.740;19.498;2023-03-20T02:23:02;48.53;;;17.63;;
45136;SDS011;30894;51.740;19.498;2023-03-20T02:31:40;48.40;;;16.95;;
45136;SDS011;30894;51.740;19.498;2023-03-20T02:34:28;46.92;;;15.70;;
45136;SDS011;30894;51.740;19.498;2023-03-20T02:37:34;41.10;;;16.60;;
45136;SDS011;30894;51.740;19.498;2023-03-20T02:43:04;37.05;;;16.27;;
45136;SDS011;30894;51.740;19.498;2023-03-20T02:54:25;53.25;;;18.40;;
45136;SDS011;30894;51.740;19.498;2023-03-20T03:00:11;56.30;;;17.40;;
45136;SDS011;30894;51.740;19.498;2023-03-20T03:02:52;42.45;;;17.02;;
45136;SDS011;30894;51.740;19.498;2023-03-20T03:05:38;44.38;;;16.67;;
45136;SDS011;30894;51.740;19.498;2023-03-20T03:08:10;51.33;;;17.80;;
45136;SDS011;30894;51.740;19.498;2023-03-20T03:10:45;47.30;;;16.55;;
45136;SDS011;30894;51.740;19.498;2023-03-20T03:13:17;43.55;;;17.20;;
45136;SDS011;30894;51.740;19.498;2023-03-20T03:15:53;42.65;;;15.98;;
45136;SDS011;30894;51.740;19.498;2023-03-20T03:18:27;43.90;;;16.95;;
45136;SDS011;30894;51.740;19.498;2023-03-20T03:20:56;49.70;;;16.13;;
45136;SDS011;30894;51.740;19.498;2023-03-20T03:23:29;41.22;;;16.88;;
45136;SDS011;30894;51.740;19.498;2023-03-20T03:26:00;42.60;;;17.05;;
45136;SDS011;30894;51.740;19.498;2023-03-20T03:31:11;54.42;;;17.27;;
45136;SDS011;30894;51.740;19.498;2023-03-20T03:33:40;37.83;;;15.75;;
45136;SDS011;30894;51.740;19.498;2023-03-20T03:44:56;41.88;;;15.55;;
45136;SDS011;30894;51.740;19.498;2023-03-20T03:47:53;43.97;;;16.58;;
45136;SDS011;30894;51.740;19.498;2023-03-20T03:50:50;44.60;;;16.60;;
45136;SDS011;30894;51.740;19.498;2023-03-20T03:53:22;42.92;;;15.07;;
45136;SDS011;30894;51.740;19.498;2023-03-20T03:58:27;35.83;;;13.48;;
45136;SDS011;30894;51.740;19.498;2023-03-20T04:00:58;39.70;;;15.25;;
45136;SDS011;30894;51.740;19.498;2023-03-20T04:03:28;38.55;;;14.45;;
45136;SDS011;30894;51.740;19.498;2023-03-20T04:05:58;37.10;;;13.88;;
45136;SDS011;30894;51.740;19.498;2023-03-20T04:08:27;32.55;;;13.50;;
45136;SDS011;30894;51.740;19.498;2023-03-20T04:10:53;30.33;;;13.52;;
45136;SDS011;30894;51.740;19.498;2023-03-20T04:13:19;28.52;;;13.65;;
45136;SDS011;30894;51.740;19.498;2023-03-20T04:15:45;30.20;;;12.55;;
45136;SDS011;30894;51.740;19.498;2023-03-20T04:18:15;41.67;;;12.85;;
45136;SDS011;30894;51.740;19.498;2023-03-20T04:20:43;34.15;;;12.10;;
45136;SDS011;30894;51.740;19.498;2023-03-20T04:23:11;42.53;;;12.50;;
45136;SDS011;30894;51.740;19.498;2023-03-20T04:25:38;32.20;;;12.85;;
45136;SDS011;30894;51.740;19.498;2023-03-20T04:28:04;31.48;;;12.63;;
45136;SDS011;30894;51.740;19.498;2023-03-20T04:30:31;20.40;;;9.43;;
45136;SDS011;30894;51.740;19.498;2023-03-20T04:32:57;29.10;;;11.25;;
45136;SDS011;30894;51.740;19.498;2023-03-20T04:35:23;24.95;;;9.45;;
45136;SDS011;30894;51.740;19.498;2023-03-20T04:37:50;23.88;;;10.18;;
45136;SDS011;30894;51.740;19.498;2023-03-20T04:40:16;21.25;;;9.35;;
45136;SDS011;30894;51.740;19.498;2023-03-20T04:42:42;28.40;;;10.60;;
45136;SDS011;30894;51.740;19.498;2023-03-20T04:45:08;33.05;;;11.68;;
45136;SDS011;30894;51.740;19.498;2023-03-20T04:47:35;27.08;;;11.07;;
45136;SDS011;30894;51.740;19.498;2023-03-20T04:50:01;30.45;;;11.77;;
45136;SDS011;30894;51.740;19.498;2023-03-20T04:52:27;22.35;;;9.90;;
45136;SDS011;30894;51.740;19.498;2023-03-20T04:54:53;27.67;;;10.80;;
45136;SDS011;30894;51.740;19.498;2023-03-20T04:57:19;27.58;;;12.13;;
45136;SDS011;30894;51.740;19.498;2023-03-20T04:59:45;23.00;;;11.07;;
45136;SDS011;30894;51.740;19.498;2023-03-20T05:02:12;23.27;;;11.38;;
45136;SDS011;30894;51.740;19.498;2023-03-20T05:04:40;30.92;;;10.35;;
45136;SDS011;30894;51.740;19.498;2023-03-20T05:07:07;25.83;;;10.95;;
45136;SDS011;30894;51.740;19.498;2023-03-20T05:09:33;23.45;;;10.65;;
45136;SDS011;30894;51.740;19.498;2023-03-20T05:12:00;30.40;;;11.23;;
45136;SDS011;30894;51.740;19.498;2023-03-20T05:14:26;28.10;;;10.30;;
45136;SDS011;30894;51.740;19.498;2023-03-20T05:16:52;29.23;;;11.05;;
45136;SDS011;30894;51.740;19.498;2023-03-20T05:19:18;36.35;;;12.80;;
45136;SDS011;30894;51.740;19.498;2023-03-20T05:21:45;25.95;;;12.23;;
45136;SDS011;30894;51.740;19.498;2023-03-20T05:24:11;32.25;;;12.57;;
45136;SDS011;30894;51.740;19.498;2023-03-20T05:26:37;28.83;;;12.18;;
45136;SDS011;30894;51.740;19.498;2023-03-20T05:29:03;28.42;;;12.02;;
45136;SDS011;30894;51.740;19.498;2023-03-20T05:31:29;31.42;;;12.13;;
45136;SDS011;30894;51.740;19.498;2023-03-20T05:33:55;36.58;;;14.05;;
45136;SDS011;30894;51.740;19.498;2023-03-20T05:36:22;32.92;;;12.85;;
45136;SDS011;30894;51.740;19.498;2023-03-20T05:38:48;31.27;;;13.13;;
45136;SDS011;30894;51.740;19.498;2023-03-20T05:41:14;26.95;;;11.60;;
45136;SDS011;30894;51.740;19.498;2023-03-20T05:43:40;34.33;;;13.32;;
45136;SDS011;30894;51.740;19.498;2023-03-20T05:46:07;30.50;;;12.07;;
45136;SDS011;30894;51.740;19.498;2023-03-20T05:48:33;34.17;;;13.50;;
45136;SDS011;30894;51.740;19.498;2023-03-20T05:50:59;36.47;;;13.43;;
45136;SDS011;30894;51.740;19.498;2023-03-20T05:53:25;28.13;;;11.77;;
45136;SDS011;30894;51.740;19.498;2023-03-20T05:55:52;32.03;;;12.32;;
45136;SDS011;30894;51.740;19.498;2023-03-20T05:58:18;25.30;;;11.93;;
45136;SDS011;30894;51.740;19.498;2023-03-20T06:00:45;32.72;;;12.13;;
45136;SDS011;30894;51.740;19.498;2023-03-20T06:03:11;29.55;;;12.63;;
45136;SDS011;30894;51.740;19.498;2023-03-20T06:05:37;43.35;;;13.70;;
45136;SDS011;30894;51.740;19.498;2023-03-20T06:08:04;30.20;;;11.93;;
45136;SDS011;30894;51.740;19.498;2023-03-20T06:10:30;29.80;;;12.55;;
45136;SDS011;30894;51.740;19.498;2023-03-20T06:12:57;28.35;;;12.27;;
45136;SDS011;30894;51.740;19.498;2023-03-20T06:15:28;29.70;;;12.57;;
45136;SDS011;30894;51.740;19.498;2023-03-20T06:17:54;30.35;;;11.95;;
45136;SDS011;30894;51.740;19.498;2023-03-20T06:20:22;30.02;;;12.35;;
45136;SDS011;30894;51.740;19.498;2023-03-20T06:22:48;33.20;;;12.70;;
45136;SDS011;30894;51.740;19.498;2023-03-20T06:25:14;31.60;;;13.25;;
45136;SDS011;30894;51.740;19.498;2023-03-20T06:27:41;27.45;;;11.38;;
45136;SDS011;30894;51.740;19.498;2023-03-20T06:30:08;32.40;;;13.15;;
45136;SDS011;30894;51.740;19.498;2023-03-20T06:32:35;35.38;;;13.45;;
45136;SDS011;30894;51.740;19.498;2023-03-20T06:35:02;35.33;;;14.00;;
45136;SDS011;30894;51.740;19.498;2023-03-20T06:37:32;30.98;;;13.07;;
45136;SDS011;30894;51.740;19.498;2023-03-20T06:39:58;34.60;;;13.32;;
45136;SDS011;30894;51.740;19.498;2023-03-20T06:42:24;35.90;;;14.05;;
45136;SDS011;30894;51.740;19.498;2023-03-20T06:44:51;33.45;;;14.18;;
45136;SDS011;30894;51.740;19.498;2023-03-20T06:47:17;40.10;;;15.93;;
45136;SDS011;30894;51.740;19.498;2023-03-20T06:49:43;37.45;;;14.93;;
45136;SDS011;30894;51.740;19.498;2023-03-20T06:52:13;39.55;;;15.77;;
45136;SDS011;30894;51.740;19.498;2023-03-20T06:54:46;42.78;;;16.70;;
45136;SDS011;30894;51.740;19.498;2023-03-20T06:57:12;33.15;;;15.32;;
45136;SDS011;30894;51.740;19.498;2023-03-20T06:59:39;43.67;;;17.23;;
45136;SDS011;30894;51.740;19.498;2023-03-20T07:02:05;37.65;;;13.88;;
45136;SDS011;30894;51.740;19.498;2023-03-20T07:04:33;36.42;;;13.70;;
45136;SDS011;30894;51.740;19.498;2023-03-20T07:06:59;28.92;;;13.30;;
45136;SDS011;30894;51.740;19.498;2023-03-20T07:09:25;41.70;;;15.68;;
45136;SDS011;30894;51.740;19.498;2023-03-20T07:11:51;32.97;;;14.73;;
45136;SDS011;30894;51.740;19.498;2023-03-20T07:14:19;37.67;;;15.55;;
45136;SDS011;30894;51.740;19.498;2023-03-20T07:16:47;42.20;;;16.60;;
45136;SDS011;30894;51.740;19.498;2023-03-20T07:19:13;34.83;;;14.90;;
45136;SDS011;30894;51.740;19.498;2023-03-20T07:21:39;29.23;;;12.80;;
45136;SDS011;30894;51.740;19.498;2023-03-20T07:24:07;39.33;;;15.00;;
45136;SDS011;30894;51.740;19.498;2023-03-20T07:26:33;41.50;;;17.50;;
45136;SDS011;30894;51.740;19.498;2023-03-20T07:29:00;28.92;;;13.35;;
45136;SDS011;30894;51.740;19.498;2023-03-20T07:31:27;43.30;;;17.40;;
45136;SDS011;30894;51.740;19.498;2023-03-20T07:33:55;39.25;;;14.98;;
45136;SDS011;30894;51.740;19.498;2023-03-20T07:36:21;36.58;;;13.85;;
45136;SDS011;30894;51.740;19.498;2023-03-20T07:38:48;33.92;;;14.18;;
45136;SDS011;30894;51.740;19.498;2023-03-20T07:41:14;33.40;;;14.45;;
45136;SDS011;30894;51.740;19.498;2023-03-20T07:43:41;33.40;;;14.77;;
45136;SDS011;30894;51.740;19.498;2023-03-20T07:46:09;32.90;;;13.05;;
45136;SDS011;30894;51.740;19.498;2023-03-20T07:48:36;35.28;;;14.52;;
45136;SDS011;30894;51.740;19.498;2023-03-20T07:51:02;41.42;;;15.50;;
45136;SDS011;30894;51.740;19.498;2023-03-20T07:53:29;39.20;;;15.20;;
45136;SDS011;30894;51.740;19.498;2023-03-20T07:55:57;35.72;;;14.02;;
45136;SDS011;30894;51.740;19.498;2023-03-20T07:58:23;31.73;;;14.63;;
45136;SDS011;30894;51.740;19.498;2023-03-20T08:00:53;34.20;;;15.32;;
45136;SDS011;30894;51.740;19.498;2023-03-20T08:03:23;37.97;;;16.13;;
45136;SDS011;30894;51.740;19.498;2023-03-20T08:05:49;35.25;;;15.70;;
45136;SDS011;30894;51.740;19.498;2023-03-20T08:08:17;33.80;;;14.88;;
45136;SDS011;30894;51.740;19.498;2023-03-20T08:10:43;27.40;;;13.18;;
45136;SDS011;30894;51.740;19.498;2023-03-20T08:13:09;38.08;;;15.20;;
45136;SDS011;30894;51.740;19.498;2023-03-20T08:15:36;37.38;;;16.40;;
45136;SDS011;30894;51.740;19.498;2023-03-20T08:18:03;30.85;;;14.40;;
45136;SDS011;30894;51.740;19.498;2023-03-20T08:20:29;31.67;;;14.70;;
45136;SDS011;30894;51.740;19.498;2023-03-20T08:22:56;28.83;;;13.70;;
45136;SDS011;30894;51.740;19.498;2023-03-20T08:25:22;40.47;;;15.15;;
45136;SDS011;30894;51.740;19.498;2023-03-20T08:27:49;39.47;;;14.25;;
45136;SDS011;30894;51.740;19.498;2023-03-20T08:30:15;37.30;;;15.80;;
45136;SDS011;30894;51.740;19.498;2023-03-20T08:32:41;41.50;;;14.90;;
45136;SDS011;30894;51.740;19.498;2023-03-20T08:35:08;34.05;;;14.18;;
45136;SDS011;30894;51.740;19.498;2023-03-20T08:37:35;33.10;;;14.07;;
45136;SDS011;30894;51.740;19.498;2023-03-20T08:40:03;30.75;;;13.82;;
45136;SDS011;30894;51.740;19.498;2023-03-20T08:42:30;33.88;;;13.50;;
45136;SDS011;30894;51.740;19.498;2023-03-20T08:44:57;31.85;;;13.63;;
45136;SDS011;30894;51.740;19.498;2023-03-20T08:47:26;35.25;;;14.85;;
45136;SDS011;30894;51.740;19.498;2023-03-20T08:49:52;35.25;;;15.60;;
45136;SDS011;30894;51.740;19.498;2023-03-20T08:52:18;36.20;;;15.77;;
45136;SDS011;30894;51.740;19.498;2023-03-20T08:54:45;37.83;;;15.77;;
45136;SDS011;30894;51.740;19.498;2023-03-20T08:57:11;35.50;;;16.17;;
45136;SDS011;30894;51.740;19.498;2023-03-20T08:59:38;35.78;;;16.50;;
45136;SDS011;30894;51.740;19.498;2023-03-20T09:02:04;31.60;;;15.10;;
45136;SDS011;30894;51.740;19.498;2023-03-20T09:04:31;31.80;;;14.80;;
45136;SDS011;30894;51.740;19.498;2023-03-20T09:06:57;28.50;;;14.43;;
45136;SDS011;30894;51.740;19.498;2023-03-20T09:09:25;35.17;;;15.55;;
45136;SDS011;30894;51.740;19.498;2023-03-20T09:11:54;43.58;;;17.70;;
45136;SDS011;30894;51.740;19.498;2023-03-20T09:14:21;39.92;;;16.55;;
45136;SDS011;30894;51.740;19.498;2023-03-20T09:16:49;41.30;;;16.48;;
45136;SDS011;30894;51.740;19.498;2023-03-20T09:19:16;35.00;;;16.27;;
45136;SDS011;30894;51.740;19.498;2023-03-20T09:21:45;31.70;;;15.55;;
45136;SDS011;30894;51.740;19.498;2023-03-20T09:24:11;30.33;;;14.38;;
45136;SDS011;30894;51.740;19.498;2023-03-20T09:26:38;37.33;;;16.05;;
45136;SDS011;30894;51.740;19.498;2023-03-20T09:29:04;42.53;;;19.02;;
45136;SDS011;30894;51.740;19.498;2023-03-20T09:31:31;38.65;;;14.57;;
45136;SDS011;30894;51.740;19.498;2023-03-20T09:33:58;34.90;;;15.40;;
45136;SDS011;30894;51.740;19.498;2023-03-20T09:36:24;37.88;;;14.90;;
45136;SDS011;30894;51.740;19.498;2023-03-20T09:38:50;38.30;;;15.07;;
45136;SDS011;30894;51.740;19.498;2023-03-20T09:41:21;32.13;;;15.70;;
45136;SDS011;30894;51.740;19.498;2023-03-20T09:51:59;37.45;;;15.43;;
45136;SDS011;30894;51.740;19.498;2023-03-20T09:54:48;34.65;;;14.57;;
45136;SDS011;30894;51.740;19.498;2023-03-20T09:57:23;34.10;;;15.10;;
45136;SDS011;30894;51.740;19.498;2023-03-20T10:00:01;30.33;;;14.48;;
45136;SDS011;30894;51.740;19.498;2023-03-20T10:02:38;34.30;;;14.68;;
45136;SDS011;30894;51.740;19.498;2023-03-20T10:05:20;26.52;;;14.27;;
45136;SDS011;30894;51.740;19.498;2023-03-20T10:07:54;28.75;;;13.05;;
45136;SDS011;30894;51.740;19.498;2023-03-20T10:10:30;27.83;;;12.30;;
45136;SDS011;30894;51.740;19.498;2023-03-20T10:13:15;33.33;;;13.32;;
45136;SDS011;30894;51.740;19.498;2023-03-20T10:16:06;28.65;;;12.40;;
45136;SDS011;30894;51.740;19.498;2023-03-20T10:18:54;28.58;;;12.35;;
45136;SDS011;30894;51.740;19.498;2023-03-20T10:21:52;25.73;;;12.85;;
45136;SDS011;30894;51.740;19.498;2023-03-20T10:24:33;28.30;;;13.15;;
45136;SDS011;30894;51.740;19.498;2023-03-20T10:27:22;31.40;;;13.13;;
45136;SDS011;30894;51.740;19.498;2023-03-20T10:29:59;31.20;;;13.45;;
45136;SDS011;30894;51.740;19.498;2023-03-20T10:32:50;25.20;;;12.75;;
45136;SDS011;30894;51.740;19.498;2023-03-20T10:41:01;25.65;;;11.93;;
45136;SDS011;30894;51.740;19.498;2023-03-20T10:43:35;34.60;;;13.52;;
45136;SDS011;30894;51.740;19.498;2023-03-20T10:46:14;31.77;;;12.38;;
45136;SDS011;30894;51.740;19.498;2023-03-20T10:48:49;22.35;;;10.68;;
45136;SDS011;30894;51.740;19.498;2023-03-20T10:51:40;21.75;;;10.70;;
45136;SDS011;30894;51.740;19.498;2023-03-20T10:54:33;25.65;;;11.48;;
45136;SDS011;30894;51.740;19.498;2023-03-20T10:57:06;22.95;;;12.07;;
45136;SDS011;30894;51.740;19.498;2023-03-20T10:59:47;23.20;;;10.73;;
45136;SDS011;30894;51.740;19.498;2023-03-20T11:02:18;20.20;;;9.63;;
45136;SDS011;30894;51.740;19.498;2023-03-20T11:04:47;20.25;;;10.10;;
45136;SDS011;30894;51.740;19.498;2023-03-20T11:12:33;18.42;;;9.68;;
45136;SDS011;30894;51.740;19.498;2023-03-20T11:17:51;23.05;;;10.98;;
45136;SDS011;30894;51.740;19.498;2023-03-20T11:20:26;23.48;;;11.43;;
45136;SDS011;30894;51.740;19.498;2023-03-20T11:23:10;21.50;;;10.27;;
45136;SDS011;30894;51.740;19.498;2023-03-20T11:25:47;23.30;;;10.65;;
45136;SDS011;30894;51.740;19.498;2023-03-20T11:28:29;26.67;;;10.88;;
45136;SDS011;30894;51.740;19.498;2023-03-20T11:31:05;20.23;;;10.75;;
45136;SDS011;30894;51.740;19.498;2023-03-20T11:33:39;23.52;;;11.25;;
45136;SDS011;30894;51.740;19.498;2023-03-20T11:36:25;20.55;;;11.02;;
45136;SDS011;30894;51.740;19.498;2023-03-20T11:41:34;21.35;;;10.55;;
45136;SDS011;30894;51.740;19.498;2023-03-20T11:47:00;20.85;;;9.90;;
45136;SDS011;30894;51.740;19.498;2023-03-20T11:49:30;16.42;;;8.90;;
45136;SDS011;30894;51.740;19.498;2023-03-20T11:52:08;15.60;;;8.98;;
45136;SDS011;30894;51.740;19.498;2023-03-20T11:54:44;19.35;;;10.60;;
45136;SDS011;30894;51.740;19.498;2023-03-20T11:57:29;19.63;;;9.05;;
45136;SDS011;30894;51.740;19.498;2023-03-20T12:00:16;22.20;;;9.57;;
45136;SDS011;30894;51.740;19.498;2023-03-20T12:02:48;19.85;;;10.80;;
45136;SDS011;30894;51.740;19.498;2023-03-20T12:05:33;22.73;;;10.48;;
45136;SDS011;30894;51.740;19.498;2023-03-20T12:08:03;21.75;;;10.63;;
45136;SDS011;30894;51.740;19.498;2023-03-20T12:10:41;22.27;;;10.70;;
45136;SDS011;30894;51.740;19.498;2023-03-20T12:13:16;18.85;;;10.68;;
45136;SDS011;30894;51.740;19.498;2023-03-20T12:15:55;21.05;;;10.00;;
45136;SDS011;30894;51.740;19.498;2023-03-20T12:21:03;18.45;;;9.85;;
45136;SDS011;30894;51.740;19.498;2023-03-20T12:23:44;18.90;;;10.68;;
45136;SDS011;30894;51.740;19.498;2023-03-20T12:26:19;19.15;;;10.43;;
45136;SDS011;30894;51.740;19.498;2023-03-20T12:31:34;20.42;;;10.65;;
45136;SDS011;30894;51.740;19.498;2023-03-20T12:37:08;16.63;;;9.07;;
45136;SDS011;30894;51.740;19.498;2023-03-20T12:39:37;25.77;;;10.80;;
45136;SDS011;30894;51.740;19.498;2023-03-20T12:50:29;18.90;;;9.70;;
45136;SDS011;30894;51.740;19.498;2023-03-20T12:59:08;19.48;;;9.40;;
45136;SDS011;30894;51.740;19.498;2023-03-20T13:11:30;21.67;;;11.15;;
45136;SDS011;30894;51.740;19.498;2023-03-20T13:17:18;10.60;;;5.63;;
45136;SDS011;30894;51.740;19.498;2023-03-20T13:20:27;14.82;;;7.57;;
45136;SDS011;30894;51.740;19.498;2023-03-20T13:34:30;14.75;;;7.85;;
45136;SDS011;30894;51.740;19.498;2023-03-20T13:37:29;12.88;;;6.30;;
45136;SDS011;30894;51.740;19.498;2023-03-20T13:46:11;12.98;;;6.88;;
45136;SDS011;30894;51.740;19.498;2023-03-20T13:48:47;13.07;;;7.60;;
45136;SDS011;30894;51.740;19.498;2023-03-20T13:54:27;17.95;;;9.07;;
45136;SDS011;30894;51.740;19.498;2023-03-20T14:04:04;14.73;;;7.85;;
45136;SDS011;30894;51.740;19.498;2023-03-20T14:06:56;14.68;;;7.97;;
45136;SDS011;30894;51.740;19.498;2023-03-20T14:11:54;15.90;;;7.15;;
45136;SDS011;30894;51.740;19.498;2023-03-20T14:14:27;16.17;;;6.40;;
45136;SDS011;30894;51.740;19.498;2023-03-20T14:17:07;13.98;;;7.25;;
45136;SDS011;30894;51.740;19.498;2023-03-20T14:19:45;12.88;;;6.78;;
45136;SDS011;30894;51.740;19.498;2023-03-20T14:22:16;17.13;;;7.82;;
45136;SDS011;30894;51.740;19.498;2023-03-20T14:24:59;16.63;;;6.65;;
45136;SDS011;30894;51.740;19.498;2023-03-20T14:27:51;15.07;;;6.93;;
45136;SDS011;30894;51.740;19.498;2023-03-20T14:36:09;15.88;;;7.45;;
45136;SDS011;30894;51.740;19.498;2023-03-20T14:45:12;14.52;;;6.90;;
45136;SDS011;30894;51.740;19.498;2023-03-20T14:53:41;12.63;;;6.40;;
45136;SDS011;30894;51.740;19.498;2023-03-20T14:56:10;12.95;;;7.45;;
45136;SDS011;30894;51.740;19.498;2023-03-20T14:58:46;14.63;;;7.13;;
45136;SDS011;30894;51.740;19.498;2023-03-20T15:01:25;12.93;;;6.07;;
45136;SDS011;30894;51.740;19.498;2023-03-20T15:07:05;15.98;;;6.65;;
45136;SDS011;30894;51.740;19.498;2023-03-20T15:09:40;15.20;;;6.82;;
45136;SDS011;30894;51.740;19.498;2023-03-20T15:12:15;10.77;;;6.07;;
45136;SDS011;30894;51.740;19.498;2023-03-20T15:14:49;15.23;;;7.45;;
45136;SDS011;30894;51.740;19.498;2023-03-20T15:17:22;10.60;;;6.20;;
45136;SDS011;30894;51.740;19.498;2023-03-20T15:20:13;15.60;;;6.68;;
45136;SDS011;30894;51.740;19.498;2023-03-20T15:22:54;10.40;;;6.15;;
45136;SDS011;30894;51.740;19.498;2023-03-20T15:25:23;10.90;;;5.78;;
45136;SDS011;30894;51.740;19.498;2023-03-20T15:28:13;12.10;;;6.22;;
45136;SDS011;30894;51.740;19.498;2023-03-20T15:30:44;12.57;;;6.90;;
45136;SDS011;30894;51.740;19.498;2023-03-20T15:33:26;14.05;;;7.25;;
45136;SDS011;30894;51.740;19.498;2023-03-20T15:36:19;11.38;;;6.63;;
45136;SDS011;30894;51.740;19.498;2023-03-20T15:38:50;14.80;;;7.85;;
45136;SDS011;30894;51.740;19.498;2023-03-20T15:44:14;11.80;;;6.63;;
45136;SDS011;30894;51.740;19.498;2023-03-20T15:46:58;20.45;;;6.40;;
45136;SDS011;30894;51.740;19.498;2023-03-20T15:49:30;11.73;;;6.78;;
45136;SDS011;30894;51.740;19.498;2023-03-20T15:52:31;13.73;;;6.72;;
45136;SDS011;30894;51.740;19.498;2023-03-20T15:55:11;17.13;;;7.60;;
45136;SDS011;30894;51.740;19.498;2023-03-20T15:57:43;13.32;;;7.05;;
45136;SDS011;30894;51.740;19.498;2023-03-20T16:00:15;11.43;;;7.00;;
45136;SDS011;30894;51.740;19.498;2023-03-20T16:02:48;15.52;;;6.80;;
45136;SDS011;30894;51.740;19.498;2023-03-20T16:05:16;14.48;;;8.32;;
45136;SDS011;30894;51.740;19.498;2023-03-20T16:07:43;11.32;;;6.32;;
45136;SDS011;30894;51.740;19.498;2023-03-20T16:10:21;13.27;;;6.78;;
45136;SDS011;30894;51.740;19.498;2023-03-20T16:12:55;13.20;;;7.25;;
45136;SDS011;30894;51.740;19.498;2023-03-20T16:15:23;13.90;;;7.57;;
45136;SDS011;30894;51.740;19.498;2023-03-20T16:17:53;13.45;;;7.15;;
45136;SDS011;30894;51.740;19.498;2023-03-20T16:20:22;13.60;;;7.07;;
45136;SDS011;30894;51.740;19.498;2023-03-20T16:22:53;14.65;;;7.35;;
45136;SDS011;30894;51.740;19.498;2023-03-20T16:25:25;14.63;;;7.95;;
45136;SDS011;30894;51.740;19.498;2023-03-20T16:27:51;14.32;;;6.68;;
45136;SDS011;30894;51.740;19.498;2023-03-20T16:30:28;15.77;;;7.30;;
45136;SDS011;30894;51.740;19.498;2023-03-20T16:33:00;13.38;;;6.70;;
45136;SDS011;30894;51.740;19.498;2023-03-20T16:35:46;15.02;;;6.88;;
45136;SDS011;30894;51.740;19.498;2023-03-20T16:40:51;13.77;;;7.00;;
45136;SDS011;30894;51.740;19.498;2023-03-20T16:43:39;16.55;;;6.60;;
45136;SDS011;30894;51.740;19.498;2023-03-20T16:46:05;22.73;;;7.72;;
45136;SDS011;30894;51.740;19.498;2023-03-20T16:48:35;18.73;;;7.43;;
45136;SDS011;30894;51.740;19.498;2023-03-20T16:51:36;15.13;;;7.78;;
45136;SDS011;30894;51.740;19.498;2023-03-20T16:53:57;20.77;;;8.43;;
45136;SDS011;30894;51.740;19.498;2023-03-20T16:56:33;18.80;;;8.35;;
45136;SDS011;30894;51.740;19.498;2023-03-20T16:59:06;19.52;;;9.68;;
45136;SDS011;30894;51.740;19.498;2023-03-20T17:01:35;17.90;;;8.48;;
45136;SDS011;30894;51.740;19.498;2023-03-20T17:04:16;17.43;;;8.60;;
45136;SDS011;30894;51.740;19.498;2023-03-20T17:06:49;15.68;;;7.82;;
45136;SDS011;30894;51.740;19.498;2023-03-20T17:11:57;19.00;;;9.35;;
45136;SDS011;30894;51.740;19.498;2023-03-20T17:14:28;14.63;;;8.18;;
45136;SDS011;30894;51.740;19.498;2023-03-20T17:16:54;18.55;;;9.18;;
45136;SDS011;30894;51.740;19.498;2023-03-20T17:19:22;17.58;;;7.82;;
45136;SDS011;30894;51.740;19.498;2023-03-20T17:21:49;18.30;;;8.85;;
45136;SDS011;30894;51.740;19.498;2023-03-20T17:24:15;16.65;;;8.48;;
45136;SDS011;30894;51.740;19.498;2023-03-20T17:26:44;22.75;;;10.30;;
45136;SDS011;30894;51.740;19.498;2023-03-20T17:29:18;23.38;;;9.93;;
45136;SDS011;30894;51.740;19.498;2023-03-20T17:31:46;28.50;;;11.70;;